Time;durP1;ratioP1;P1;durP2;ratioP2;P2;SDS_P1;SDS_P2;PMS_P1;PMS_P2;Temp;Humidity;BMP_temperature;BMP_pressure;BME280_temperature;BME280_humidity;BME280_pressure;Samples;Min_cycle;Max_cycle;Signal;HPM_P1;HPM_P2
2022/02/05 00:01:22;;;;;;;95.40;80.95;;;;;;;-5.25;100.00;101268.53;4976860;28;20046;-80
2022/02/05 00:03:56;;;;;;;106.38;89.32;;;;;;;-5.11;100.00;101263.38;4977471;28;20149;-80
2022/02/05 00:06:29;;;;;;;99.57;78.53;;;;;;;-5.33;100.00;101268.97;4974465;28;20137;-79
2022/02/05 00:09:05;;;;;;;95.75;78.85;;;;;;;-5.39;100.00;101261.56;4974856;28;20126;-78
2022/02/05 00:15:06;;;;;;;80.93;72.15;;;;;;;-5.09;100.00;101267.53;4990558;28;20061;-79
2022/02/05 00:33:10;;;;;;;66.35;60.00;;;;;;;-5.42;100.00;101269.53;4980194;28;20052;-78
2022/02/05 00:39:58;;;;;;;63.00;57.25;;;;;;;-5.76;100.00;101256.75;4975120;28;20050;-78
2022/02/05 00:42:38;;;;;;;60.92;55.72;;;;;;;-5.67;100.00;101262.34;4978928;28;20055;-79
2022/02/05 00:45:08;;;;;;;59.53;54.05;;;;;;;-5.49;100.00;101263.88;4975000;28;20050;-81
2022/02/05 00:47:36;;;;;;;60.72;55.40;;;;;;;-5.25;100.00;101264.19;4975408;28;20050;-81
2022/02/05 00:50:06;;;;;;;62.65;57.10;;;;;;;-5.58;100.00;101259.22;4972912;28;20538;-82
2022/02/05 00:52:33;;;;;;;57.42;52.63;;;;;;;-5.35;100.00;101256.13;4973867;28;20055;-78
2022/02/05 00:55:07;;;;;;;60.40;55.22;;;;;;;-5.07;100.00;101244.13;4973903;28;20055;-80
2022/02/05 00:57:45;;;;;;;62.40;57.05;;;;;;;-5.13;100.00;101237.56;4965797;28;20054;-80
2022/02/05 01:00:15;;;;;;;58.67;53.55;;;;;;;-5.32;100.00;101231.81;4965693;28;20051;-78
2022/02/05 01:02:41;;;;;;;63.90;58.63;;;;;;;-5.20;100.00;101233.69;4966915;28;20094;-79
2022/02/05 01:05:09;;;;;;;56.50;51.95;;;;;;;-5.65;100.00;101237.22;4967705;28;20054;-81
2022/02/05 01:07:36;;;;;;;65.68;60.08;;;;;;;-5.59;100.00;101237.69;4967755;28;20050;-79
2022/02/05 01:10:05;;;;;;;72.65;66.75;;;;;;;-5.61;100.00;101230.94;4972916;28;20058;-78
2022/02/05 01:12:34;;;;;;;71.75;65.00;;;;;;;-6.16;100.00;101228.94;4973257;28;20050;-80
2022/02/05 01:15:02;;;;;;;71.30;64.03;;;;;;;-6.05;100.00;101229.16;4970291;28;20051;-79
2022/02/05 01:17:34;;;;;;;65.85;59.42;;;;;;;-6.36;100.00;101232.63;4970518;28;20058;-81
2022/02/05 01:22:47;;;;;;;69.35;63.53;;;;;;;-6.16;100.00;101244.47;4968643;28;20066;-79
2022/02/05 01:25:20;;;;;;;60.15;55.05;;;;;;;-6.20;100.00;101237.78;4974939;28;20126;-78
2022/02/05 01:27:51;;;;;;;59.90;54.92;;;;;;;-5.86;100.00;101237.53;4970854;28;20661;-78
2022/02/05 01:30:23;;;;;;;61.45;56.50;;;;;;;-5.90;100.00;101236.03;4965949;28;20046;-80
2022/02/05 01:33:01;;;;;;;61.83;56.38;;;;;;;-5.93;100.00;101237.97;4965743;28;20452;-80
2022/02/05 01:35:36;;;;;;;69.13;63.03;;;;;;;-5.74;100.00;101237.75;4972855;28;20065;-79
2022/02/05 01:49:39;;;;;;;65.80;59.60;;;;;;;-5.51;100.00;101229.47;4973006;28;20058;-77
2022/02/05 01:52:12;;;;;;;65.00;59.13;;;;;;;-5.69;100.00;101221.00;4963013;28;20066;-79
2022/02/05 01:54:52;;;;;;;63.47;57.60;;;;;;;-5.82;100.00;101231.25;4972800;28;20054;-81
2022/02/05 01:57:25;;;;;;;64.50;58.25;;;;;;;-5.74;100.00;101232.56;4971148;28;20496;-79
2022/02/05 02:04:46;;;;;;;68.80;61.55;;;;;;;-5.96;100.00;101228.66;4966294;28;20473;-79
2022/02/05 02:05:31;;;;;;;74.32;66.43;;;;;;;-5.79;100.00;101227.66;4968440;28;20053;-80
2022/02/05 02:11:11;;;;;;;;;;;;;;;-6.16;100.00;101223.78;4926976;28;20062;-80
2022/02/05 02:16:34;;;;;;;109.40;89.53;;;;;;;-6.15;100.00;101220.25;4966428;28;20149;-81
2022/02/05 02:19:10;;;;;;;123.07;103.60;;;;;;;-6.21;100.00;101226.59;4970659;28;20053;-79
2022/02/05 02:21:44;;;;;;;89.47;75.68;;;;;;;-6.49;100.00;101211.78;4963073;28;20130;-81
2022/02/05 02:24:17;;;;;;;92.32;73.68;;;;;;;-6.52;100.00;101222.28;4966359;28;20046;-81
2022/02/05 02:27:00;;;;;;;74.10;66.10;;;;;;;-6.24;100.00;101222.44;4968779;28;20043;-79
2022/02/05 02:29:37;;;;;;;73.70;66.28;;;;;;;-6.30;100.00;101216.78;4967295;28;20047;-81
2022/02/05 02:32:04;;;;;;;72.80;64.88;;;;;;;-6.26;100.00;101210.53;4961741;28;20066;-82
2022/02/05 02:34:36;;;;;;;76.10;68.78;;;;;;;-6.34;100.00;101210.13;4962822;28;20055;-82
2022/02/05 02:37:13;;;;;;;;;;;;;;;-6.51;100.00;101205.84;4959677;28;20053;-80
2022/02/05 02:39:55;;;;;;;84.97;76.40;;;;;;;-6.37;100.00;101208.53;4964081;28;19930;-82
2022/02/05 02:42:23;;;;;;;93.18;83.63;;;;;;;-6.45;100.00;101205.53;4969770;28;20121;-81
2022/02/05 02:44:50;;;;;;;75.35;67.70;;;;;;;-6.47;100.00;101210.78;4969030;28;20055;-80
2022/02/05 02:47:16;;;;;;;80.50;72.20;;;;;;;-6.15;100.00;101212.50;4968490;28;20105;-80
2022/02/05 02:49:53;;;;;;;77.93;70.25;;;;;;;-6.23;100.00;101221.53;4968360;28;20047;-78
2022/02/05 02:57:55;;;;;;;90.43;80.93;;;;;;;-5.76;100.00;101207.59;4969288;28;20061;-80
2022/02/05 03:02:57;;;;;;;86.25;77.50;;;;;;;-6.02;100.00;101213.47;4644234;26;20055;-79
2022/02/05 03:05:25;;;;;;;73.88;66.63;;;;;;;-5.84;100.00;101217.56;5001211;28;20054;-78
2022/02/05 03:07:53;;;;;;;82.60;73.60;;;;;;;-5.93;100.00;101222.44;5001864;28;20124;-79
2022/02/05 03:10:19;;;;;;;76.18;68.35;;;;;;;-5.94;100.00;101216.44;4996157;28;20054;-78
2022/02/05 03:12:46;;;;;;;84.07;75.88;;;;;;;-5.78;100.00;101219.81;5002220;28;20076;-79
2022/02/05 03:15:18;;;;;;;81.35;72.75;;;;;;;-6.02;100.00;101214.31;5003224;28;20049;-79
2022/02/05 03:17:54;;;;;;;75.47;68.45;;;;;;;-5.92;100.00;101217.19;5002465;28;20060;-80
2022/02/05 03:20:21;;;;;;;69.38;63.42;;;;;;;-6.11;100.00;101224.31;5002133;28;20054;-81
2022/02/05 03:22:48;;;;;;;73.03;66.75;;;;;;;-6.11;100.00;101219.16;5005228;28;20050;-78
2022/02/05 03:25:16;;;;;;;73.90;67.35;;;;;;;-5.67;100.00;101218.34;5010122;28;20050;-79
2022/02/05 03:27:43;;;;;;;66.82;61.00;;;;;;;-5.54;100.00;101214.13;5001942;28;20545;-78
2022/02/05 03:30:11;;;;;;;71.50;64.88;;;;;;;-5.69;100.00;101209.84;5003300;28;20119;-79
2022/02/05 03:32:38;;;;;;;68.55;62.83;;;;;;;-5.77;100.00;101210.28;5002450;28;20065;-79
2022/02/05 03:35:05;;;;;;;74.15;68.15;;;;;;;-5.61;100.00;101215.41;5001644;28;20062;-80
2022/02/05 03:37:33;;;;;;;71.32;65.43;;;;;;;-5.64;100.00;101221.59;5007293;28;20459;-80
2022/02/05 03:40:00;;;;;;;63.47;58.33;;;;;;;-5.40;100.00;101208.97;5011760;28;20484;-80
2022/02/05 03:42:28;;;;;;;65.32;59.78;;;;;;;-5.55;100.00;101207.28;5003351;28;20057;-79
2022/02/05 03:44:54;;;;;;;69.93;64.07;;;;;;;-5.73;100.00;101219.53;5007595;28;20050;-80
2022/02/05 03:47:21;;;;;;;67.47;61.35;;;;;;;-5.82;100.00;101218.31;5010409;28;20050;-80
2022/02/05 03:49:50;;;;;;;65.57;60.17;;;;;;;-5.72;100.00;101216.00;5006599;28;20049;-81
2022/02/05 03:52:18;;;;;;;62.92;57.53;;;;;;;-5.62;100.00;101212.00;5008656;28;20045;-78
2022/02/05 03:54:45;;;;;;;60.30;55.25;;;;;;;-5.44;100.00;101215.25;4999353;28;20483;-79
2022/02/05 03:57:12;;;;;;;62.25;56.75;;;;;;;-5.33;100.00;101207.66;5010114;28;20147;-81
2022/02/05 03:59:40;;;;;;;62.45;57.08;;;;;;;-5.68;100.00;101206.34;5008982;28;20053;-80
2022/02/05 04:02:07;;;;;;;67.60;61.58;;;;;;;-5.67;100.00;101208.00;5009256;28;20468;-80
2022/02/05 04:04:34;;;;;;;71.25;64.75;;;;;;;-5.67;100.00;101206.25;5007569;28;20049;-78
2022/02/05 04:07:01;;;;;;;71.63;65.18;;;;;;;-5.85;100.00;101204.72;5012725;28;20037;-79
2022/02/05 04:09:34;;;;;;;68.32;61.55;;;;;;;-5.87;100.00;101207.41;5016121;28;20064;-78
2022/02/05 04:15:57;;;;;;;77.30;69.47;;;;;;;-6.18;100.00;101216.09;5004254;28;20054;-78
2022/02/05 04:17:34;;;;;;;72.07;65.65;;;;;;;-6.86;100.00;101203.44;5014741;28;20053;-79
2022/02/05 04:20:01;;;;;;;69.55;63.80;;;;;;;-6.59;100.00;101208.03;5010541;28;20112;-78
2022/02/05 04:22:28;;;;;;;69.40;63.33;;;;;;;-6.52;100.00;101207.63;5006703;28;20046;-81
2022/02/05 04:24:55;;;;;;;57.90;52.70;;;;;;;-6.68;100.00;101224.88;5011212;28;20054;-79
2022/02/05 04:27:22;;;;;;;63.42;57.58;;;;;;;-6.59;100.00;101215.81;5010547;28;20041;-80
2022/02/05 04:29:50;;;;;;;71.45;64.70;;;;;;;-6.43;100.00;101223.53;5009480;28;20077;-81
2022/02/05 04:32:17;;;;;;;81.00;73.10;;;;;;;-6.36;100.00;101220.53;5011966;28;20046;-80
2022/02/05 04:34:44;;;;;;;77.82;69.70;;;;;;;-6.54;100.00;101219.78;5013708;28;20046;-79
2022/02/05 04:37:11;;;;;;;73.00;65.53;;;;;;;-6.57;100.00;101217.34;5012646;28;20480;-79
2022/02/05 04:39:43;;;;;;;67.15;60.63;;;;;;;-6.62;100.00;101218.56;5012520;28;20041;-81
2022/02/05 04:42:13;;;;;;;70.93;64.63;;;;;;;-6.46;100.00;101222.78;5012500;28;20059;-80
2022/02/05 04:44:59;;;;;;;76.03;69.53;;;;;;;-6.62;100.00;101227.13;5011531;28;20470;-81
2022/02/05 04:47:49;;;;;;;71.43;65.13;;;;;;;-6.57;100.00;101225.13;5012888;28;20137;-80
2022/02/05 04:50:37;;;;;;;72.93;65.40;;;;;;;-6.91;100.00;101219.19;5011591;28;20140;-80
2022/02/05 04:53:32;;;;;;;85.47;75.82;;;;;;;-6.75;100.00;101229.50;5012415;28;20057;-81
2022/02/05 04:56:17;;;;;;;97.10;80.65;;;;;;;-6.82;100.00;101232.53;5012441;28;20065;-80
2022/02/05 04:59:10;;;;;;;90.07;76.72;;;;;;;-6.85;100.00;101233.53;5011808;28;20058;-80
2022/02/05 05:01:55;;;;;;;85.80;73.15;;;;;;;-6.62;100.00;101240.06;5011258;28;20363;-80
2022/02/05 05:04:30;;;;;;;90.90;79.70;;;;;;;-6.49;100.00;101246.22;5009093;28;20426;-78
2022/02/05 05:09:54;;;;;;;86.97;76.53;;;;;;;-6.89;100.00;101241.53;5011687;28;20172;-80
2022/02/05 05:12:29;;;;;;;87.35;77.78;;;;;;;-6.64;100.00;101254.78;5011621;28;20046;-82
2022/02/05 05:20:26;;;;;;;77.82;70.00;;;;;;;-6.55;100.00;101256.06;5012012;28;20053;-80
2022/02/05 05:22:53;;;;;;;73.63;66.38;;;;;;;-6.33;100.00;101256.53;5010215;28;20050;-78
2022/02/05 05:25:20;;;;;;;72.90;65.65;;;;;;;-6.54;100.00;101248.22;5012147;28;20096;-77
2022/02/05 05:27:46;;;;;;;67.18;60.67;;;;;;;-6.31;100.00;101261.66;5005296;28;20050;-79
2022/02/05 05:30:14;;;;;;;67.50;60.85;;;;;;;-6.42;100.00;101261.38;4994878;28;20046;-79
2022/02/05 05:32:40;;;;;;;68.43;61.75;;;;;;;-6.41;100.00;101257.88;4971739;28;20119;-79
2022/02/05 05:35:08;;;;;;;63.40;57.50;;;;;;;-6.55;100.00;101261.22;4988292;28;20117;-77
2022/02/05 05:37:36;;;;;;;113.20;83.40;;;;;;;-6.64;100.00;101254.78;4983920;28;20489;-81
2022/02/05 05:40:04;;;;;;;300.05;148.02;;;;;;;-7.01;100.00;101253.34;4983246;28;20046;-78
2022/02/05 05:42:35;;;;;;;171.93;106.40;;;;;;;-6.99;100.00;101256.66;4976685;28;20113;-78
2022/02/05 05:45:32;;;;;;;120.68;89.10;;;;;;;-6.98;100.00;101259.16;4974714;28;20105;-80
2022/02/05 05:48:06;;;;;;;121.55;92.88;;;;;;;-7.04;100.00;101266.41;4981837;28;20046;-81
2022/02/05 05:50:58;;;;;;;82.25;73.55;;;;;;;-7.01;100.00;101266.25;4982201;28;20592;-78
2022/02/05 05:53:27;;;;;;;74.60;66.70;;;;;;;-6.67;100.00;101265.28;4975863;28;20047;-80
2022/02/05 05:55:54;;;;;;;83.45;71.53;;;;;;;-6.59;100.00;101272.66;4987071;28;20117;-78
2022/02/05 05:58:21;;;;;;;137.00;100.57;;;;;;;-6.62;100.00;101267.66;4981849;28;20054;-83
2022/02/05 06:00:49;;;;;;;134.60;102.88;;;;;;;-6.49;100.00;101284.16;4988859;28;20104;-79
2022/02/05 06:03:16;;;;;;;112.95;88.82;;;;;;;-6.20;100.00;101289.50;4978904;28;20086;-80
2022/02/05 06:05:44;;;;;;;211.07;122.97;;;;;;;-6.08;100.00;101287.09;4986595;28;20047;-80
2022/02/05 06:08:12;;;;;;;144.73;115.63;;;;;;;-5.95;100.00;101292.41;4981919;28;20058;-79
2022/02/05 06:10:40;;;;;;;106.85;89.03;;;;;;;-5.50;100.00;101295.03;4976552;28;20113;-79
2022/02/05 06:13:07;;;;;;;97.78;83.97;;;;;;;-5.61;100.00;101291.28;4987413;28;20478;-78
2022/02/05 06:15:34;;;;;;;91.53;81.28;;;;;;;-5.14;100.00;101295.47;4981533;28;20058;-80
2022/02/05 06:18:01;;;;;;;99.13;88.43;;;;;;;-4.74;100.00;101294.84;4982446;28;20046;-80
2022/02/05 06:20:28;;;;;;;96.50;81.22;;;;;;;-4.35;100.00;101285.56;4983472;28;20152;-79
2022/02/05 06:22:55;;;;;;;104.75;80.47;;;;;;;-4.07;100.00;101295.03;4985922;28;20089;-80
2022/02/05 06:25:21;;;;;;;91.03;80.82;;;;;;;-3.77;100.00;101287.03;4983617;28;20065;-79
2022/02/05 06:27:50;;;;;;;96.28;81.68;;;;;;;-3.43;100.00;101285.66;4980001;28;20054;-77
2022/02/05 06:30:16;;;;;;;98.85;87.55;;;;;;;-3.24;100.00;101280.06;4990794;28;20113;-78
2022/02/05 06:32:43;;;;;;;101.35;82.60;;;;;;;-2.88;100.00;101284.53;4992802;28;20132;-80
2022/02/05 06:35:12;;;;;;;101.05;85.13;;;;;;;-2.24;100.00;101278.38;4980209;28;20062;-78
2022/02/05 06:37:39;;;;;;;103.53;79.00;;;;;;;-2.22;100.00;101279.94;4992246;28;20058;-79
2022/02/05 06:40:07;;;;;;;127.25;87.25;;;;;;;-1.69;100.00;101275.25;4986534;28;20058;-79
2022/02/05 06:42:34;;;;;;;87.38;69.60;;;;;;;-1.39;100.00;101279.94;4979555;28;20046;-79
2022/02/05 06:45:03;;;;;;;89.32;73.40;;;;;;;-1.73;100.00;101270.34;4991391;28;20055;-78
2022/02/05 06:47:30;;;;;;;75.00;66.82;;;;;;;-1.69;100.00;101271.81;4984684;28;20113;-79
2022/02/05 06:49:57;;;;;;;69.32;62.65;;;;;;;-1.56;100.00;101261.31;4986750;28;20053;-78
2022/02/05 06:52:24;;;;;;;73.22;66.25;;;;;;;-0.94;100.00;101251.34;4980823;28;20062;-79
2022/02/05 06:54:51;;;;;;;66.97;60.88;;;;;;;0.84;100.00;101254.44;4993290;28;20117;-83
2022/02/05 06:57:18;;;;;;;72.40;64.97;;;;;;;-0.67;100.00;101255.34;4987447;28;20553;-77
2022/02/05 06:59:45;;;;;;;72.03;65.30;;;;;;;-0.85;100.00;101262.81;4990220;28;20051;-80
2022/02/05 07:02:14;;;;;;;70.15;62.92;;;;;;;-0.64;100.00;101262.94;4992357;28;20149;-77
2022/02/05 07:04:41;;;;;;;72.65;64.78;;;;;;;0.05;100.00;101264.47;4982181;28;20067;-77
2022/02/05 07:07:08;;;;;;;68.43;61.05;;;;;;;-0.33;100.00;101269.22;4982959;28;20073;-78
2022/02/05 07:09:37;;;;;;;64.32;57.78;;;;;;;-0.03;100.00;101265.06;4985219;28;20085;-78
2022/02/05 07:12:04;;;;;;;65.32;58.55;;;;;;;0.38;100.00;101272.16;4992447;28;20057;-77
2022/02/05 07:14:36;;;;;;;61.28;55.30;;;;;;;0.99;100.00;101275.84;4983050;28;20069;-78
2022/02/05 07:17:10;;;;;;;61.95;56.25;;;;;;;1.48;100.00;101271.66;4989466;28;20046;-77
2022/02/05 07:19:54;;;;;;;62.65;56.75;;;;;;;2.12;100.00;101268.63;4984141;28;20050;-79
2022/02/05 07:22:23;;;;;;;65.07;59.40;;;;;;;1.73;100.00;101270.34;4997260;28;20073;-77
2022/02/05 07:25:02;;;;;;;65.20;59.35;;;;;;;2.16;100.00;101269.97;4992749;28;20069;-78
2022/02/05 07:30:12;;;;;;;76.45;68.50;;;;;;;3.30;100.00;101273.50;4994335;28;20454;-79
2022/02/05 07:32:39;;;;;;;129.32;87.30;;;;;;;3.34;100.00;101274.03;4996059;28;20046;-77
2022/02/05 07:35:08;;;;;;;82.55;72.47;;;;;;;3.26;100.00;101277.38;4995825;28;20109;-78
2022/02/05 07:37:35;;;;;;;73.18;65.85;;;;;;;4.09;100.00;101283.41;4995243;28;20108;-77
2022/02/05 07:40:02;;;;;;;74.95;67.32;;;;;;;4.26;100.00;101284.38;4993577;28;20133;-78
2022/02/05 07:42:30;;;;;;;67.80;61.60;;;;;;;4.92;100.00;101282.25;4994459;28;20051;-78
2022/02/05 07:44:56;;;;;;;64.30;59.17;;;;;;;4.68;100.00;101277.66;4985953;28;20423;-78
2022/02/05 07:47:24;;;;;;;60.92;56.13;;;;;;;4.60;100.00;101273.16;4993807;28;20055;-77
2022/02/05 07:49:51;;;;;;;69.75;63.92;;;;;;;5.08;100.00;101271.00;4988847;28;20046;-78
2022/02/05 07:52:19;;;;;;;63.45;58.65;;;;;;;5.58;100.00;101265.78;4994473;28;20055;-78
2022/02/05 07:54:46;;;;;;;66.97;61.22;;;;;;;6.56;100.00;101267.75;4986207;28;20062;-78
2022/02/05 07:57:13;;;;;;;65.05;59.60;;;;;;;6.45;100.00;101270.75;4998780;28;20477;-78
2022/02/05 07:59:40;;;;;;;63.20;58.38;;;;;;;6.41;100.00;101272.88;4990528;28;20553;-77
2022/02/05 08:02:08;;;;;;;59.42;55.53;;;;;;;6.83;100.00;101277.13;4996418;28;20129;-78
2022/02/05 08:04:34;;;;;;;60.80;56.70;;;;;;;7.31;96.47;101262.16;4996298;28;20403;-80
2022/02/05 08:07:02;;;;;;;62.67;58.47;;;;;;;7.17;93.68;101268.13;4989903;28;20117;-77
2022/02/05 08:09:43;;;;;;;62.92;58.60;;;;;;;7.90;93.09;101262.53;4988499;28;20054;-78
2022/02/05 08:12:13;;;;;;;66.28;61.67;;;;;;;8.21;89.75;101259.00;4981475;28;20070;-79
2022/02/05 08:14:45;;;;;;;63.05;58.50;;;;;;;7.53;90.34;101264.06;4995440;28;20054;-78
2022/02/05 08:17:18;;;;;;;65.85;61.25;;;;;;;8.49;83.51;101256.66;4997508;28;20133;-79
2022/02/05 08:19:46;;;;;;;63.90;59.70;;;;;;;9.25;80.12;101262.66;4999187;28;20054;-79
2022/02/05 08:22:13;;;;;;;64.13;59.65;;;;;;;9.33;78.40;101253.81;4996267;28;20055;-79
2022/02/05 08:24:41;;;;;;;63.80;59.35;;;;;;;8.40;78.18;101269.13;4990954;28;20082;-79
2022/02/05 08:27:08;;;;;;;64.38;59.78;;;;;;;8.92;80.81;101263.00;4993790;28;20538;-79
2022/02/05 08:29:37;;;;;;;62.90;58.50;;;;;;;8.71;77.92;101254.97;4996161;28;20435;-79
2022/02/05 08:32:05;;;;;;;62.95;58.50;;;;;;;9.86;78.34;101257.06;4993062;28;20081;-79
2022/02/05 08:34:32;;;;;;;185.40;108.82;;;;;;;10.14;72.45;101251.84;4993138;28;20050;-79
2022/02/05 08:36:59;;;;;;;65.13;60.17;;;;;;;9.86;70.04;101244.66;4988815;28;20058;-80
2022/02/05 08:39:27;;;;;;;79.70;71.65;;;;;;;11.11;67.63;101253.00;4991494;28;20051;-80
2022/02/05 08:41:55;;;;;;;62.90;58.95;;;;;;;9.17;63.82;101247.69;4999558;28;20046;-79
2022/02/05 08:44:22;;;;;;;59.90;56.10;;;;;;;7.13;72.90;101248.34;4992972;28;20451;-81
2022/02/05 08:46:48;;;;;;;57.10;53.55;;;;;;;8.24;69.01;101251.53;4990849;28;20061;-79
2022/02/05 08:49:16;;;;;;;58.42;54.80;;;;;;;7.89;70.68;101255.56;4985523;28;20047;-79
2022/02/05 08:51:43;;;;;;;60.65;56.85;;;;;;;8.70;69.82;101248.84;4990563;28;20129;-77
2022/02/05 08:54:09;;;;;;;59.63;55.92;;;;;;;8.66;64.89;101238.81;4990165;28;20050;-79
2022/02/05 08:56:36;;;;;;;60.90;57.10;;;;;;;8.68;62.17;101248.22;4994817;28;20046;-78
2022/02/05 08:59:04;;;;;;;58.40;54.95;;;;;;;8.36;62.55;101244.00;4989898;28;20065;-79
2022/02/05 09:01:45;;;;;;;58.53;54.75;;;;;;;6.61;71.30;101254.91;4990745;28;20053;-79
2022/02/05 09:04:19;;;;;;;57.67;54.15;;;;;;;7.96;63.55;101261.00;4987847;28;20050;-79
2022/02/05 09:06:47;;;;;;;58.40;54.90;;;;;;;9.91;63.04;101252.03;4988825;28;20501;-78
2022/02/05 09:09:22;;;;;;;59.15;55.45;;;;;;;9.27;59.10;101243.94;4992384;28;20415;-79
2022/02/05 09:11:55;;;;;;;57.88;54.50;;;;;;;10.72;57.87;101244.59;4985798;28;20121;-79
2022/02/05 09:14:32;;;;;;;59.20;55.65;;;;;;;10.13;61.00;101252.03;4992842;28;20046;-79
2022/02/05 09:16:59;;;;;;;56.33;53.00;;;;;;;8.73;59.67;101239.72;4995120;28;20132;-79
2022/02/05 09:19:28;;;;;;;58.90;55.25;;;;;;;8.43;64.25;101241.47;4990113;28;20062;-79
2022/02/05 09:21:55;;;;;;;57.60;54.20;;;;;;;9.93;55.89;101244.69;4993981;28;20057;-79
2022/02/05 09:24:24;;;;;;;60.50;57.00;;;;;;;10.72;57.11;101249.09;4985652;28;20546;-79
2022/02/05 09:26:58;;;;;;;59.28;55.72;;;;;;;11.11;55.75;101248.50;4990754;28;20088;-79
2022/02/05 09:29:27;;;;;;;57.80;54.42;;;;;;;9.74;55.92;101242.66;4992866;28;20065;-78
2022/02/05 09:31:53;;;;;;;59.80;56.35;;;;;;;10.99;53.87;101242.09;4994942;28;20069;-79
2022/02/05 09:34:21;;;;;;;60.10;56.63;;;;;;;10.55;50.10;101232.59;4995128;28;20117;-79
2022/02/05 09:36:48;;;;;;;60.67;57.22;;;;;;;8.78;52.46;101232.06;4986745;28;20059;-79
2022/02/05 09:39:16;;;;;;;56.83;53.42;;;;;;;12.26;50.88;101222.06;4987820;28;20085;-78
2022/02/05 09:41:44;;;;;;;58.85;55.35;;;;;;;10.17;52.95;101213.50;4991464;28;20054;-79
2022/02/05 09:44:11;;;;;;;59.60;56.30;;;;;;;10.21;52.19;101201.47;4989469;28;20051;-80
2022/02/05 09:46:40;;;;;;;62.10;58.30;;;;;;;10.47;55.19;101203.56;4989657;28;20050;-79
2022/02/05 09:49:08;;;;;;;60.65;57.28;;;;;;;11.09;49.83;101186.75;4989598;28;20050;-79
2022/02/05 09:51:44;;;;;;;65.78;61.95;;;;;;;11.14;50.48;101194.13;4990101;28;20054;-79
2022/02/05 09:54:11;;;;;;;61.58;58.10;;;;;;;11.91;47.71;101192.94;4989160;28;20047;-79
2022/02/05 09:56:39;;;;;;;61.47;57.92;;;;;;;9.76;49.82;101184.94;4985841;28;20054;-79
2022/02/05 09:59:06;;;;;;;60.25;56.75;;;;;;;12.64;48.24;101176.91;4988459;28;20446;-78
2022/02/05 10:01:35;;;;;;;60.70;57.13;;;;;;;11.95;47.53;101172.03;4991760;28;20042;-79
2022/02/05 10:04:06;;;;;;;64.75;60.85;;;;;;;13.50;43.98;101173.97;4992803;28;20503;-77
2022/02/05 10:06:39;;;;;;;58.28;54.88;;;;;;;9.90;46.28;101172.63;4988177;28;20489;-79
2022/02/05 10:09:08;;;;;;;58.50;55.17;;;;;;;12.15;46.01;101156.91;4993294;28;20112;-78
2022/02/05 10:11:48;;;;;;;61.55;57.97;;;;;;;11.65;46.51;101164.44;4995126;28;20042;-78
2022/02/05 10:14:16;;;;;;;59.63;56.13;;;;;;;11.53;49.16;101145.56;4992073;28;20117;-81
2022/02/05 10:16:50;;;;;;;58.65;55.33;;;;;;;12.60;47.36;101141.06;4998613;28;20050;-79
2022/02/05 10:19:18;;;;;;;60.65;56.75;;;;;;;13.62;45.27;101143.94;4996502;28;20046;-79
2022/02/05 10:21:45;;;;;;;60.03;56.42;;;;;;;9.17;49.62;101144.34;4983361;28;20459;-77
2022/02/05 10:24:12;;;;;;;62.13;58.63;;;;;;;11.34;47.94;101138.34;4994762;28;20399;-78
2022/02/05 10:26:41;;;;;;;60.78;57.10;;;;;;;12.01;49.22;101141.94;4997419;28;20104;-78
2022/02/05 10:29:10;;;;;;;63.05;59.35;;;;;;;12.83;48.29;101140.59;4990170;28;20054;-79
2022/02/05 10:32:00;;;;;;;66.75;62.15;;;;;;;12.64;45.90;101126.28;4990227;28;20058;-79
2022/02/05 10:34:31;;;;;;;62.90;58.60;;;;;;;13.81;44.25;101139.50;4986411;28;20391;-78
2022/02/05 10:37:13;;;;;;;58.22;54.83;;;;;;;13.91;43.62;101131.81;4994130;28;20050;-78
2022/02/05 10:43:02;;;;;;;61.15;57.65;;;;;;;13.55;44.81;101127.13;4936418;29;20550;-79
2022/02/05 10:45:40;;;;;;;58.78;55.35;;;;;;;11.81;46.57;101131.28;4984561;28;20046;-79
2022/02/05 10:48:08;;;;;;;61.63;58.22;;;;;;;12.09;44.93;101131.91;4985289;28;20046;-79
2022/02/05 10:50:36;;;;;;;60.72;57.40;;;;;;;10.90;48.43;101113.88;4984926;28;20058;-78
2022/02/05 10:53:09;;;;;;;60.20;56.90;;;;;;;10.97;47.06;101109.41;4986914;28;20050;-78
2022/02/05 10:55:48;;;;;;;59.08;55.50;;;;;;;13.53;43.47;101108.69;5001188;28;20057;-79
2022/02/05 10:58:25;;;;;;;59.03;55.65;;;;;;;14.55;40.74;101105.75;4996309;28;20073;-79
2022/02/05 11:06:23;;;;;;;56.05;53.05;;;;;;;14.53;40.38;101086.47;4990811;28;20415;-79
2022/02/05 11:08:50;;;;;;;57.53;54.33;;;;;;;12.90;39.41;101082.75;4996735;28;20129;-79
2022/02/05 11:14:12;;;;;;;58.25;54.83;;;;;;;12.36;42.53;101078.63;4996479;28;20057;-78
2022/02/05 11:19:23;;;;;;;59.65;56.33;;;;;;;14.40;39.27;101085.53;4991293;28;20387;-78
2022/02/05 11:21:53;;;;;;;55.53;52.33;;;;;;;14.23;40.16;101103.19;4985571;28;20050;-79
2022/02/05 11:24:23;;;;;;;57.53;54.47;;;;;;;14.08;39.71;101098.16;4989147;28;20201;-79
2022/02/05 11:26:52;;;;;;;61.25;57.97;;;;;;;14.20;39.56;101091.06;4993064;28;20133;-80
2022/02/05 11:29:30;;;;;;;59.75;56.55;;;;;;;12.77;42.44;101075.63;4994053;28;20050;-79
2022/02/05 11:32:21;;;;;;;58.75;55.45;;;;;;;12.17;44.56;101085.63;4992201;28;20434;-79
2022/02/05 11:35:04;;;;;;;58.00;54.65;;;;;;;11.64;46.04;101082.94;4992664;28;20146;-80
2022/02/05 11:37:32;;;;;;;;;;;;;;;11.98;46.21;101089.13;4994286;28;20060;-78
2022/02/05 11:39:59;;;;;;;57.58;54.38;;;;;;;11.51;47.80;101088.28;4994596;28;19993;-79
2022/02/05 11:42:28;;;;;;;58.78;55.28;;;;;;;14.15;42.49;101090.91;4990551;28;20050;-79
2022/02/05 11:44:57;;;;;;;60.38;56.72;;;;;;;12.48;46.60;101084.94;4998493;28;20050;-79
2022/02/05 11:47:32;;;;;;;57.45;54.15;;;;;;;12.72;45.32;101088.75;4996339;28;20485;-79
2022/02/05 11:50:17;;;;;;;58.83;55.22;;;;;;;12.59;45.63;101086.16;4995308;28;20050;-78
2022/02/05 11:53:08;;;;;;;61.70;57.92;;;;;;;11.62;46.52;101069.88;4999868;28;20140;-79
2022/02/05 11:55:43;;;;;;;58.63;55.22;;;;;;;12.66;45.19;101070.13;5000237;28;20153;-79
2022/02/05 11:58:13;;;;;;;60.53;57.03;;;;;;;13.31;46.31;101075.38;4998486;28;20085;-79
2022/02/05 12:00:43;;;;;;;56.42;52.90;;;;;;;12.57;47.12;101066.88;4989994;28;20407;-79
2022/02/05 12:03:27;;;;;;;58.20;54.85;;;;;;;11.59;49.91;101074.75;4994929;28;20069;-78
2022/02/05 12:06:00;;;;;;;82.55;76.50;;;;;;;11.84;49.37;101067.00;4995662;28;20058;-79
2022/02/05 12:08:29;;;;;;;88.38;81.95;;;;;;;11.17;49.95;101058.97;4997578;28;20046;-81
2022/02/05 12:10:58;;;;;;;83.75;77.47;;;;;;;13.03;47.71;101049.84;4998614;28;20077;-79
2022/02/05 12:13:28;;;;;;;86.07;79.45;;;;;;;12.63;48.89;101046.56;4993333;28;20052;-79
2022/02/05 12:16:19;;;;;;;86.53;79.93;;;;;;;12.44;51.42;101038.44;4989554;28;20395;-79
2022/02/05 12:18:58;;;;;;;82.30;75.75;;;;;;;13.04;48.22;101046.16;4993280;28;20396;-79
2022/02/05 12:21:30;;;;;;;82.05;75.70;;;;;;;13.90;47.25;101048.22;4991707;28;20043;-78
2022/02/05 12:24:36;;;;;;;;;;;;;;;13.34;48.59;101040.25;4988507;28;20047;-79
2022/02/05 12:27:23;;;;;;;88.25;81.32;;;;;;;12.43;50.25;101033.31;4987478;28;19922;-78
2022/02/05 12:29:50;;;;;;;82.50;75.72;;;;;;;11.65;50.64;101042.03;4990801;28;20537;-77
2022/02/05 12:32:17;;;;;;;85.68;78.57;;;;;;;13.50;49.06;101039.75;4986996;28;20113;-78
2022/02/05 12:34:44;;;;;;;84.65;78.25;;;;;;;13.22;48.37;101040.94;4993013;28;20468;-78
2022/02/05 12:37:11;;;;;;;85.45;78.90;;;;;;;12.81;50.40;101039.50;4993224;28;20450;-80
2022/02/05 12:39:39;;;;;;;85.03;78.35;;;;;;;11.95;51.30;101042.44;4989311;28;20109;-78
2022/02/05 12:42:14;;;;;;;84.32;77.85;;;;;;;13.14;49.31;101033.19;4981985;28;20074;-79
2022/02/05 12:44:42;;;;;;;84.78;78.47;;;;;;;13.11;48.82;101041.63;4992908;28;20070;-78
2022/02/05 12:47:16;;;;;;;85.07;78.70;;;;;;;13.18;49.16;101033.56;4996420;28;20050;-80